Time;durP1;ratioP1;P1;durP2;ratioP2;P2;SDS_P1;SDS_P2;PMS_P1;PMS_P2;Temp;Humidity;BMP_temperature;BMP_pressure;BME280_temperature;BME280_humidity;BME280_pressure;Samples;Min_cycle;Max_cycle;Signal;HPM_P1;HPM_P2
2023/12/31 00:00:55;;;;;;;2.30;2.15;;;;;;;4.75;100.00;100968.06;5037299;28;20037;-78
2023/12/31 00:03:21;;;;;;;5.97;4.22;;;;;;;4.82;100.00;100970.94;5032158;28;20261;-78
2023/12/31 00:05:47;;;;;;;6.88;6.50;;;;;;;4.67;100.00;100960.03;5027231;28;20045;-78
2023/12/31 00:08:14;;;;;;;0.85;0.85;;;;;;;5.16;100.00;101003.19;5018013;28;20080;-78
2023/12/31 00:10:40;;;;;;;1.10;1.00;;;;;;;4.72;100.00;100903.00;5026738;28;20045;-78
2023/12/31 00:13:06;;;;;;;2.53;2.42;;;;;;;4.69;100.00;100892.50;5025741;28;20057;-79
2023/12/31 00:15:31;;;;;;;12.50;8.15;;;;;;;4.58;100.00;100903.41;5029443;28;20730;-78
2023/12/31 00:17:57;;;;;;;3.42;3.22;;;;;;;5.19;100.00;101000.69;5030024;28;20113;-77
2023/12/31 00:20:22;;;;;;;3.22;3.10;;;;;;;5.16;100.00;101003.19;5021692;28;20603;-76
2023/12/31 00:22:48;;;;;;;0.73;0.73;;;;;;;5.27;100.00;101006.16;5021130;28;20172;-76
2023/12/31 00:25:13;;;;;;;6.05;5.47;;;;;;;5.14;100.00;100996.19;5028802;28;20138;-77
2023/12/31 00:27:41;;;;;;;0.73;0.73;;;;;;;4.71;100.00;101011.28;5024704;28;20034;-77
2023/12/31 00:30:07;;;;;;;3.15;2.95;;;;;;;4.20;100.00;100878.78;5017043;28;20064;-76
2023/12/31 00:32:32;;;;;;;4.45;4.18;;;;;;;5.17;100.00;101019.69;5023933;28;20190;-77
2023/12/31 00:34:58;;;;;;;2.65;2.55;;;;;;;4.85;100.00;100959.75;5020612;28;20529;-77
2023/12/31 00:37:23;;;;;;;3.60;3.40;;;;;;;5.17;100.00;101022.28;5020584;28;20066;-78
2023/12/31 00:39:49;;;;;;;0.73;0.73;;;;;;;4.47;100.00;100915.19;5026163;28;20049;-77
2023/12/31 00:42:14;;;;;;;0.90;0.90;;;;;;;4.92;100.00;100998.09;5022087;28;20120;-78
2023/12/31 00:44:40;;;;;;;17.33;13.10;;;;;;;5.08;100.00;101023.78;5029133;28;20045;-78
2023/12/31 00:47:05;;;;;;;7.35;6.55;;;;;;;4.70;100.00;100951.44;5032247;28;20275;-76
2023/12/31 00:49:31;;;;;;;12.13;2.60;;;;;;;4.87;100.00;100999.69;5019100;28;20397;-78
2023/12/31 00:51:57;;;;;;;7.78;6.43;;;;;;;4.33;100.00;100913.84;5025177;28;20186;-78
2023/12/31 00:54:22;;;;;;;7.63;7.22;;;;;;;4.01;100.00;100895.47;5026234;28;20038;-78
2023/12/31 00:56:47;;;;;;;9.57;8.98;;;;;;;4.73;100.00;101006.13;5022532;28;20037;-79
2023/12/31 00:59:13;;;;;;;4.45;4.22;;;;;;;4.80;100.00;101036.69;5031223;28;20080;-78
2023/12/31 01:01:38;;;;;;;4.15;3.92;;;;;;;4.17;100.00;100892.56;5024168;28;20095;-77
2023/12/31 01:04:04;;;;;;;9.80;8.48;;;;;;;4.10;100.00;100915.69;5022888;28;20282;-78
2023/12/31 01:06:29;;;;;;;2.20;2.10;;;;;;;4.69;100.00;101014.66;5022957;28;20044;-77
2023/12/31 01:08:57;;;;;;;3.35;2.95;;;;;;;4.71;100.00;101026.00;5021266;28;20484;-76
2023/12/31 01:11:23;;;;;;;14.30;13.05;;;;;;;4.34;100.00;101029.94;5023610;28;20853;-76
2023/12/31 01:13:49;;;;;;;6.80;6.15;;;;;;;3.84;100.00;100912.16;5021268;28;20061;-76
2023/12/31 01:16:14;;;;;;;2.13;1.95;;;;;;;4.00;100.00;100911.88;5020190;28;20054;-77
2023/12/31 01:18:40;;;;;;;1.13;1.05;;;;;;;4.32;100.00;100990.91;5024398;28;20064;-78
2023/12/31 01:21:05;;;;;;;4.80;4.45;;;;;;;4.33;100.00;101036.84;5029415;28;20041;-78
2023/12/31 01:23:31;;;;;;;2.15;2.05;;;;;;;4.49;100.00;101030.44;5017547;28;20049;-78
2023/12/31 01:25:58;;;;;;;7.45;6.82;;;;;;;4.53;100.00;101034.94;5030087;28;20135;-78
2023/12/31 01:28:24;;;;;;;0.50;0.50;;;;;;;3.66;100.00;100889.06;5024126;28;20060;-77
2023/12/31 01:30:50;;;;;;;3.30;3.03;;;;;;;3.76;100.00;100917.09;5022980;28;20037;-78
2023/12/31 01:33:16;;;;;;;7.32;6.90;;;;;;;3.75;100.00;100912.75;5021867;28;20520;-76
2023/12/31 01:35:41;;;;;;;0.77;0.77;;;;;;;4.35;100.00;101022.16;5020690;28;20116;-79
2023/12/31 01:38:07;;;;;;;9.80;9.27;;;;;;;4.00;100.00;100951.72;5007054;28;20438;-79
2023/12/31 01:40:33;;;;;;;1.55;1.45;;;;;;;4.07;100.00;100950.19;5026878;28;20091;-79
2023/12/31 01:42:58;;;;;;;0.73;0.73;;;;;;;4.41;100.00;101013.72;5027703;28;20599;-80
2023/12/31 01:45:24;;;;;;;3.15;2.95;;;;;;;3.75;100.00;100894.56;5027775;28;20068;-78
2023/12/31 01:47:51;;;;;;;1.45;1.40;;;;;;;3.96;100.00;100939.44;5034644;28;20404;-79
2023/12/31 01:50:19;;;;;;;0.60;0.60;;;;;;;4.01;100.00;101023.56;5031894;28;20144;-78
2023/12/31 01:52:45;;;;;;;6.45;6.05;;;;;;;3.31;100.00;100879.16;5030060;28;20517;-78
2023/12/31 01:55:11;;;;;;;8.70;7.82;;;;;;;3.72;100.00;100939.47;5026159;28;20061;-79
2023/12/31 01:57:37;;;;;;;1.35;1.25;;;;;;;3.48;100.00;100905.72;5036150;28;20128;-78
2023/12/31 02:00:05;;;;;;;3.35;3.15;;;;;;;4.01;100.00;100976.84;5029538;28;20049;-77
2023/12/31 02:02:32;;;;;;;3.28;3.10;;;;;;;4.28;100.00;101022.78;5026408;28;20063;-77
2023/12/31 02:04:57;;;;;;;9.27;8.75;;;;;;;3.61;100.00;100917.44;5027441;28;20073;-78
2023/12/31 02:07:23;;;;;;;0.30;0.30;;;;;;;4.16;100.00;100996.38;5019062;28;20596;-78
2023/12/31 02:09:50;;;;;;;1.77;1.67;;;;;;;4.04;100.00;100988.16;5027468;28;20884;-78
2023/12/31 02:12:16;;;;;;;4.00;3.72;;;;;;;3.38;100.00;100893.25;5021776;28;20037;-80
2023/12/31 02:14:41;;;;;;;10.50;5.82;;;;;;;3.22;100.00;100864.97;5029153;28;20029;-78
2023/12/31 02:17:07;;;;;;;4.93;3.80;;;;;;;4.13;100.00;101025.72;5026165;28;20052;-78
2023/12/31 02:19:32;;;;;;;1.95;1.85;;;;;;;3.26;100.00;100878.13;5020831;28;20196;-79
2023/12/31 02:21:59;;;;;;;4.15;3.85;;;;;;;3.30;100.00;100902.44;5025480;28;20398;-80
2023/12/31 02:24:34;;;;;;;9.82;9.38;;;;;;;3.08;100.00;100861.88;5023923;28;20254;-79
2023/12/31 02:27:00;;;;;;;4.22;4.03;;;;;;;3.86;100.00;100989.25;5022975;28;20076;-79
2023/12/31 02:29:25;;;;;;;4.63;4.32;;;;;;;3.49;100.00;100925.66;5024170;28;20148;-78
2023/12/31 02:31:51;;;;;;;18.67;17.67;;;;;;;3.35;100.00;100919.06;5026759;28;20073;-76
2023/12/31 02:34:16;;;;;;;1.88;1.77;;;;;;;3.99;100.00;101017.44;5010575;28;20136;-78
2023/12/31 02:36:42;;;;;;;6.88;6.45;;;;;;;4.05;100.00;101018.50;5029125;28;20052;-77
2023/12/31 02:39:08;;;;;;;23.05;13.85;;;;;;;3.98;100.00;100988.81;5026433;28;20822;-77
2023/12/31 02:41:34;;;;;;;7.30;6.90;;;;;;;3.33;100.00;100898.25;5024267;28;20141;-77
2023/12/31 02:44:01;;;;;;;2.05;1.95;;;;;;;3.76;100.00;100945.63;5026514;28;20416;-78
2023/12/31 02:46:27;;;;;;;0.40;0.40;;;;;;;3.94;100.00;100982.66;5027454;28;20475;-81
2023/12/31 02:48:52;;;;;;;13.63;12.38;;;;;;;3.74;100.00;101004.38;5034104;28;20065;-78
2023/12/31 02:51:20;;;;;;;4.15;3.92;;;;;;;3.88;100.00;101023.06;5019798;28;20064;-78
2023/12/31 02:53:45;;;;;;;7.15;6.80;;;;;;;3.97;100.00;101019.09;5006119;28;20065;-77
2023/12/31 02:56:11;;;;;;;10.77;10.23;;;;;;;4.00;100.00;101034.81;5020283;28;20100;-77
2023/12/31 02:58:36;;;;;;;2.60;2.50;;;;;;;3.71;100.00;101040.63;5021427;28;20049;-78
2023/12/31 03:01:02;;;;;;;6.10;5.78;;;;;;;3.48;100.00;100993.03;5020532;28;20053;-77
2023/12/31 03:03:27;;;;;;;18.67;13.23;;;;;;;3.80;100.00;101026.25;5017085;28;20569;-77
2023/12/31 03:05:53;;;;;;;1.73;1.63;;;;;;;3.20;100.00;100901.22;5018258;28;20038;-76
2023/12/31 03:08:18;;;;;;;7.60;7.18;;;;;;;3.90;100.00;101001.53;5017794;28;20046;-76
2023/12/31 03:10:44;;;;;;;14.95;11.27;;;;;;;3.61;100.00;100969.31;5028563;28;20041;-75
2023/12/31 03:13:10;;;;;;;4.88;4.50;;;;;;;3.32;100.00;100914.63;5023515;28;20536;-77
2023/12/31 03:15:36;;;;;;;22.48;21.13;;;;;;;3.87;100.00;101009.22;5025867;28;20269;-76
2023/12/31 03:18:04;;;;;;;23.65;22.15;;;;;;;4.01;100.00;101028.78;5024628;28;20508;-76
2023/12/31 03:20:29;;;;;;;7.53;6.20;;;;;;;3.56;100.00;100957.91;5015491;28;20048;-76
2023/12/31 03:22:55;;;;;;;6.45;6.10;;;;;;;3.61;100.00;100969.31;5024536;28;20041;-77
2023/12/31 03:25:20;;;;;;;2.03;1.92;;;;;;;2.91;100.00;100919.13;5026700;28;20062;-77
2023/12/31 03:27:46;;;;;;;1.52;1.42;;;;;;;3.32;100.00;100950.94;5024722;28;20049;-79
2023/12/31 03:30:13;;;;;;;1.27;1.15;;;;;;;3.76;100.00;101042.53;5031981;28;20030;-76
2023/12/31 03:32:40;;;;;;;3.28;3.08;;;;;;;3.21;100.00;100913.38;5027440;28;20053;-76
2023/12/31 03:35:05;;;;;;;2.35;2.15;;;;;;;4.07;100.00;101063.56;5018813;28;20513;-76
2023/12/31 03:37:31;;;;;;;3.45;3.30;;;;;;;3.36;100.00;100962.31;5032262;28;20073;-77
2023/12/31 03:39:57;;;;;;;9.85;9.32;;;;;;;3.00;100.00;100904.75;5024735;28;20057;-76
2023/12/31 03:42:23;;;;;;;10.73;9.93;;;;;;;3.56;100.00;101047.00;5009228;28;20041;-77
2023/12/31 03:44:49;;;;;;;2.75;2.65;;;;;;;3.90;100.00;101071.63;5024232;28;20124;-78
2023/12/31 03:47:14;;;;;;;2.30;2.20;;;;;;;3.46;100.00;101062.13;4998276;28;20386;-77
2023/12/31 03:49:40;;;;;;;16.02;14.50;;;;;;;3.53;100.00;101067.59;5033066;28;20059;-76
2023/12/31 03:52:06;;;;;;;3.45;2.67;;;;;;;3.76;100.00;101076.28;5024427;28;20049;-76
2023/12/31 03:54:32;;;;;;;9.15;8.63;;;;;;;3.83;100.00;101094.69;5027167;28;20103;-77
2023/12/31 03:56:57;;;;;;;3.13;2.40;;;;;;;3.24;100.00;100990.38;5028787;28;20522;-77
2023/12/31 03:59:23;;;;;;;4.68;4.35;;;;;;;3.63;100.00;101065.38;5025916;28;20052;-78
2023/12/31 04:01:56;;;;;;;2.80;2.60;;;;;;;3.84;100.00;101093.88;5026024;28;20851;-78
2023/12/31 04:04:21;;;;;;;3.22;3.03;;;;;;;3.61;100.00;101061.88;5028870;28;20556;-78
2023/12/31 04:06:48;;;;;;;1.58;1.52;;;;;;;3.45;100.00;101060.38;5027196;28;20148;-81
2023/12/31 04:09:13;;;;;;;4.60;4.38;;;;;;;3.31;100.00;101037.38;5023081;28;20041;-78
2023/12/31 04:11:39;;;;;;;17.55;16.33;;;;;;;3.48;100.00;101112.38;5029236;28;20485;-78
2023/12/31 04:14:04;;;;;;;0.68;0.50;;;;;;;3.18;100.00;101050.66;5029365;28;20587;-79
2023/12/31 04:16:31;;;;;;;11.90;10.50;;;;;;;2.87;100.00;101001.88;5016689;28;20408;-79
2023/12/31 04:18:57;;;;;;;3.38;3.17;;;;;;;3.58;100.00;101117.09;5025945;28;20501;-77
2023/12/31 04:21:23;;;;;;;4.25;3.95;;;;;;;2.87;100.00;101007.06;5027431;28;20040;-76
2023/12/31 04:23:48;;;;;;;4.60;4.35;;;;;;;2.79;100.00;101024.91;5031985;28;20112;-78
2023/12/31 04:26:14;;;;;;;6.22;5.70;;;;;;;2.60;100.00;101066.38;5026116;28;20056;-76
2023/12/31 04:28:39;;;;;;;4.03;3.80;;;;;;;2.36;100.00;101077.47;5033958;28;20053;-77
2023/12/31 04:31:06;;;;;;;0.98;0.93;;;;;;;2.60;100.00;101139.84;5034026;28;20092;-76
2023/12/31 04:33:32;;;;;;;6.78;6.32;;;;;;;1.92;100.00;101040.16;5016155;28;20033;-78
2023/12/31 04:35:57;;;;;;;2.63;2.42;;;;;;;2.08;100.00;101062.41;5032352;28;20087;-77
2023/12/31 04:38:23;;;;;;;9.00;8.23;;;;;;;2.28;100.00;101126.31;5019033;28;20099;-77
2023/12/31 04:40:49;;;;;;;5.55;4.97;;;;;;;2.36;100.00;101133.56;5018727;28;20049;-79
2023/12/31 04:43:14;;;;;;;7.55;7.18;;;;;;;2.36;100.00;101162.91;5033519;28;20784;-80
2023/12/31 04:45:40;;;;;;;25.15;23.60;;;;;;;1.93;100.00;101026.38;5021781;28;20056;-78
2023/12/31 04:48:05;;;;;;;14.63;13.55;;;;;;;2.29;100.00;101076.34;5025111;28;20044;-79
2023/12/31 04:50:32;;;;;;;30.75;14.93;;;;;;;2.88;100.00;101156.56;5019897;28;20041;-78
2023/12/31 04:52:58;;;;;;;5.05;4.78;;;;;;;2.71;100.00;101142.88;5029705;28;20633;-78
2023/12/31 04:55:23;;;;;;;4.53;4.32;;;;;;;1.98;100.00;101122.34;5024682;28;20056;-78
2023/12/31 04:57:49;;;;;;;6.88;6.35;;;;;;;2.64;100.00;101172.81;5023284;28;20152;-77
2023/12/31 05:00:15;;;;;;;2.03;1.92;;;;;;;2.51;100.00;101121.28;5029257;28;20065;-77
2023/12/31 05:02:41;;;;;;;7.10;6.78;;;;;;;2.83;100.00;101165.84;5021724;28;20120;-80
2023/12/31 05:05:07;;;;;;;8.07;7.38;;;;;;;2.40;100.00;101177.78;5024393;28;20413;-78
2023/12/31 05:07:33;;;;;;;6.63;6.25;;;;;;;2.64;100.00;101174.53;5016638;28;20046;-77
2023/12/31 05:09:58;;;;;;;7.75;6.95;;;;;;;2.86;100.00;101186.72;5024485;28;20049;-77
2023/12/31 05:12:24;;;;;;;3.40;3.17;;;;;;;2.67;100.00;101153.91;5026789;28;21240;-77
2023/12/31 05:14:49;;;;;;;9.32;8.70;;;;;;;2.84;100.00;101181.47;5021379;28;20037;-78
2023/12/31 05:17:15;;;;;;;10.98;10.40;;;;;;;2.66;100.00;101150.44;5020097;28;20053;-78
2023/12/31 05:19:41;;;;;;;3.92;3.63;;;;;;;2.76;100.00;101149.13;5017799;28;20504;-78
2023/12/31 05:22:06;;;;;;;6.50;6.20;;;;;;;2.99;100.00;101177.75;5022826;28;20045;-78
2023/12/31 05:24:32;;;;;;;8.23;7.75;;;;;;;2.23;100.00;101063.09;5017904;28;20056;-78
2023/12/31 05:26:57;;;;;;;2.03;1.92;;;;;;;2.17;100.00;101059.34;5024493;28;20538;-77
2023/12/31 05:29:23;;;;;;;4.55;4.25;;;;;;;2.53;100.00;101120.53;5021553;28;20052;-78
2023/12/31 05:31:49;;;;;;;0.90;0.90;;;;;;;2.64;100.00;101180.56;5017213;28;20068;-78
2023/12/31 05:34:15;;;;;;;3.55;3.35;;;;;;;1.83;100.00;101110.47;5019825;28;20053;-79
2023/12/31 05:36:40;;;;;;;5.85;5.45;;;;;;;2.22;100.00;101171.75;5026263;28;20081;-77
2023/12/31 05:39:06;;;;;;;3.85;3.65;;;;;;;2.06;100.00;101097.69;5023716;28;20132;-78
2023/12/31 05:41:32;;;;;;;7.35;6.95;;;;;;;2.63;100.00;101178.81;5034809;28;20758;-78
2023/12/31 05:43:57;;;;;;;9.32;8.85;;;;;;;1.97;100.00;101074.88;5011206;28;20141;-77
2023/12/31 05:46:23;;;;;;;13.43;12.40;;;;;;;2.67;100.00;101175.56;5021905;28;20067;-79
2023/12/31 05:48:48;;;;;;;2.15;2.05;;;;;;;2.12;100.00;101069.50;5023763;28;20060;-78
2023/12/31 05:51:14;;;;;;;17.33;16.40;;;;;;;2.41;100.00;101142.41;5032163;28;20036;-76
2023/12/31 05:53:40;;;;;;;11.27;10.65;;;;;;;1.95;100.00;101054.94;5033573;28;20036;-77
2023/12/31 05:56:06;;;;;;;95.63;23.85;;;;;;;2.62;100.00;101187.44;5023059;28;20553;-78
2023/12/31 05:58:32;;;;;;;1.40;1.35;;;;;;;2.54;100.00;101187.06;5012761;28;20045;-78
2023/12/31 06:00:58;;;;;;;26.35;23.63;;;;;;;2.36;100.00;101151.69;5021585;28;20587;-76
2023/12/31 06:03:24;;;;;;;4.10;3.88;;;;;;;2.05;100.00;101101.97;5015629;28;20044;-79
2023/12/31 06:05:49;;;;;;;5.72;5.43;;;;;;;2.23;100.00;101173.56;5020326;28;20025;-80
2023/12/31 06:08:15;;;;;;;6.30;5.88;;;;;;;1.80;100.00;101070.63;5025687;28;20049;-77
2023/12/31 06:10:41;;;;;;;6.75;5.40;;;;;;;2.51;100.00;101168.78;5020519;28;20048;-78
2023/12/31 06:13:06;;;;;;;1.90;1.80;;;;;;;2.51;100.00;101135.13;5029711;28;20081;-79
2023/12/31 06:15:32;;;;;;;1.83;1.73;;;;;;;2.09;100.00;101059.03;5031649;28;20117;-77
2023/12/31 06:17:57;;;;;;;15.60;14.73;;;;;;;2.02;100.00;101077.69;5027964;28;20123;-77
2023/12/31 06:20:23;;;;;;;4.95;4.65;;;;;;;1.95;100.00;101092.03;5028231;28;20052;-77
2023/12/31 06:22:49;;;;;;;7.43;7.05;;;;;;;2.33;100.00;101150.72;5028182;28;20065;-76
2023/12/31 06:25:14;;;;;;;2.85;2.75;;;;;;;2.08;100.00;101093.47;5024488;28;20065;-78
2023/12/31 06:27:40;;;;;;;4.55;4.32;;;;;;;1.83;100.00;101089.78;5022688;28;20045;-76
2023/12/31 06:30:06;;;;;;;15.80;10.65;;;;;;;2.43;100.00;101172.72;5024947;28;20083;-77
2023/12/31 06:32:31;;;;;;;8.30;7.72;;;;;;;1.84;100.00;101090.66;5026472;28;20140;-79
2023/12/31 06:34:57;;;;;;;17.23;16.05;;;;;;;2.49;100.00;101185.97;5026441;28;20512;-77
2023/12/31 06:37:22;;;;;;;13.98;12.80;;;;;;;2.60;100.00;101186.47;5020435;28;20792;-78
2023/12/31 06:39:49;;;;;;;11.52;10.90;;;;;;;2.17;100.00;101093.00;5029132;28;20069;-80
2023/12/31 06:42:15;;;;;;;8.43;8.02;;;;;;;2.51;100.00;101166.22;5020263;28;20474;-78
2023/12/31 06:44:41;;;;;;;1.05;0.98;;;;;;;2.10;100.00;101122.91;5021282;28;20033;-77
2023/12/31 06:47:07;;;;;;;38.20;34.60;;;;;;;2.86;100.00;101210.94;5029115;28;20080;-77
2023/12/31 06:49:32;;;;;;;20.33;17.90;;;;;;;2.40;100.00;101104.38;5026608;28;20058;-77
2023/12/31 06:52:00;;;;;;;14.05;13.10;;;;;;;3.10;100.00;101212.81;5027979;28;20057;-77
2023/12/31 06:54:26;;;;;;;2.45;1.75;;;;;;;2.25;100.00;101095.13;5030133;28;20087;-78
2023/12/31 06:56:52;;;;;;;7.68;7.28;;;;;;;2.69;100.00;101180.78;5025123;28;20386;-74
2023/12/31 06:59:18;;;;;;;9.90;9.30;;;;;;;2.84;100.00;101194.44;5027823;28;20058;-75
2023/12/31 07:01:43;;;;;;;26.92;19.80;;;;;;;2.70;100.00;101161.84;5022688;28;20072;-78
2023/12/31 07:04:09;;;;;;;7.65;6.70;;;;;;;3.06;100.00;101219.56;5021982;28;20080;-78
2023/12/31 07:06:34;;;;;;;10.80;10.02;;;;;;;2.94;100.00;101193.13;5029601;28;20080;-78
2023/12/31 07:09:00;;;;;;;2.95;2.85;;;;;;;2.69;100.00;101211.88;5013627;28;20029;-77
2023/12/31 07:11:25;;;;;;;8.77;8.00;;;;;;;2.60;100.00;101180.38;5026754;28;20477;-79
2023/12/31 07:13:51;;;;;;;1.85;1.75;;;;;;;2.27;100.00;101124.56;5017841;28;20049;-77
2023/12/31 07:16:16;;;;;;;7.28;6.95;;;;;;;2.78;100.00;101214.00;5024727;28;20061;-80
2023/12/31 07:18:42;;;;;;;23.50;21.52;;;;;;;2.63;100.00;101185.72;5025544;28;20698;-79
2023/12/31 07:21:08;;;;;;;5.90;5.60;;;;;;;2.87;100.00;101227.38;5031433;28;20037;-79
2023/12/31 07:23:36;;;;;;;6.07;5.78;;;;;;;2.91;100.00;101201.66;5030313;28;20053;-78
2023/12/31 07:26:03;;;;;;;6.18;5.78;;;;;;;3.01;100.00;101215.91;5030977;28;20104;-78
2023/12/31 07:28:29;;;;;;;9.10;8.15;;;;;;;3.24;100.00;101232.44;5008748;28;20061;-77
2023/12/31 07:30:55;;;;;;;9.73;7.53;;;;;;;2.62;100.00;101129.50;5034001;28;20144;-79
2023/12/31 07:33:20;;;;;;;1.75;1.65;;;;;;;3.26;100.00;101224.75;5024116;28;20516;-78
2023/12/31 07:35:46;;;;;;;4.53;4.13;;;;;;;3.59;100.00;101248.63;5031727;28;20155;-78
2023/12/31 07:38:11;;;;;;;16.65;15.32;;;;;;;2.93;100.00;101147.28;5020741;28;20041;-79
2023/12/31 07:40:37;;;;;;;6.60;6.07;;;;;;;3.11;100.00;101153.25;5022191;28;20053;-78
2023/12/31 07:43:03;;;;;;;7.13;6.70;;;;;;;3.65;100.00;101248.84;5025120;28;20041;-80
2023/12/31 07:45:28;;;;;;;3.65;3.45;;;;;;;3.37;100.00;101153.44;5031348;28;20037;-80
2023/12/31 07:47:55;;;;;;;13.13;11.35;;;;;;;3.50;100.00;101166.09;5041146;28;20044;-78
2023/12/31 07:50:21;;;;;;;0.80;0.80;;;;;;;4.18;100.00;101257.94;5023060;28;20148;-78
2023/12/31 07:52:47;;;;;;;23.48;17.40;;;;;;;4.15;100.00;101247.44;5026732;28;20049;-78
2023/12/31 07:55:13;;;;;;;19.65;18.00;;;;;;;4.01;100.00;101205.34;5032924;28;20512;-78
2023/12/31 07:57:38;;;;;;;7.20;6.72;;;;;;;4.43;100.00;101253.72;5021183;28;20071;-78
2023/12/31 08:00:05;;;;;;;2.63;2.53;;;;;;;4.47;100.00;101239.97;5031733;28;20045;-79
2023/12/31 08:02:31;;;;;;;15.10;9.52;;;;;;;4.19;100.00;101204.28;5025373;28;20057;-79
2023/12/31 08:04:56;;;;;;;20.55;18.95;;;;;;;4.02;100.00;101154.28;5016812;28;20144;-80
2023/12/31 08:07:22;;;;;;;5.22;4.93;;;;;;;4.17;100.00;101148.81;5023264;28;20123;-79
2023/12/31 08:09:48;;;;;;;9.93;9.23;;;;;;;4.16;100.00;101150.50;5021926;28;20067;-78
2023/12/31 08:12:13;;;;;;;1.27;1.05;;;;;;;4.80;100.00;101229.97;5025542;28;20385;-78
2023/12/31 08:14:40;;;;;;;3.45;1.85;;;;;;;4.42;100.00;101138.50;5019763;28;20054;-80
2023/12/31 08:17:07;;;;;;;14.07;13.27;;;;;;;5.04;100.00;101236.91;5020677;28;20127;-80
2023/12/31 08:19:32;;;;;;;6.10;5.32;;;;;;;4.99;100.00;101234.13;5017524;28;20054;-78
2023/12/31 08:21:58;;;;;;;8.15;7.53;;;;;;;4.83;100.00;101164.22;5022340;28;20098;-78
2023/12/31 08:24:24;;;;;;;2.13;2.03;;;;;;;5.12;100.00;101225.03;5023905;28;20069;-78
2023/12/31 08:26:50;;;;;;;5.97;5.57;;;;;;;5.37;100.00;101228.50;5006616;28;20146;-78
2023/12/31 08:29:18;;;;;;;8.60;8.05;;;;;;;5.50;100.00;101221.16;5023961;28;20086;-80
2023/12/31 08:31:50;;;;;;;5.60;5.25;;;;;;;5.44;100.00;101214.88;5019945;28;20712;-77
2023/12/31 08:34:17;;;;;;;2.58;2.38;;;;;;;5.05;100.00;101125.09;5005736;28;20044;-78
2023/12/31 08:36:42;;;;;;;2.58;2.40;;;;;;;5.17;100.00;101134.16;5028141;28;20053;-77
2023/12/31 08:39:08;;;;;;;2.97;2.88;;;;;;;5.60;100.00;101201.53;5021478;28;20073;-76
2023/12/31 08:41:35;;;;;;;1.35;1.25;;;;;;;5.74;100.00;101204.59;5020654;28;20136;-75
2023/12/31 08:44:00;;;;;;;2.28;2.17;;;;;;;5.92;100.00;101214.69;5001758;28;21000;-75
2023/12/31 08:46:26;;;;;;;4.60;4.32;;;;;;;5.38;100.00;101116.63;5015459;28;20128;-77
2023/12/31 08:48:51;;;;;;;1.63;1.52;;;;;;;5.87;100.00;101206.72;5017577;28;20057;-76
2023/12/31 08:51:17;;;;;;;0.90;0.90;;;;;;;5.77;100.00;101181.22;5021192;28;20122;-76
2023/12/31 08:53:42;;;;;;;0.47;0.47;;;;;;;5.43;100.00;101098.56;4995793;28;21422;-78
2023/12/31 08:56:08;;;;;;;11.60;11.05;;;;;;;5.89;100.00;101154.69;5019452;28;20064;-76
2023/12/31 08:58:34;;;;;;;7.80;7.20;;;;;;;5.55;100.00;101074.63;5025225;28;20049;-76
2023/12/31 09:00:59;;;;;;;4.05;3.72;;;;;;;6.35;100.00;101200.44;5023313;28;20084;-74
2023/12/31 09:03:24;;;;;;;3.90;3.70;;;;;;;6.45;100.00;101199.84;5023466;28;20033;-74
2023/12/31 09:05:50;;;;;;;9.00;8.45;;;;;;;6.45;100.00;101194.63;5025025;28;20037;-75
2023/12/31 09:08:16;;;;;;;1.30;1.25;;;;;;;6.22;100.00;101153.97;5025951;28;20040;-75
2023/12/31 09:10:42;;;;;;;8.43;7.97;;;;;;;5.99;100.00;101083.81;5025749;28;20041;-76
2023/12/31 09:13:07;;;;;;;4.35;4.00;;;;;;;6.13;100.00;101074.72;5026194;28;20098;-78
2023/12/31 09:15:34;;;;;;;2.83;2.72;;;;;;;6.96;100.00;101176.09;5019663;28;20080;-76
2023/12/31 09:18:00;;;;;;;3.20;3.00;;;;;;;5.98;100.00;101005.66;5028464;28;20138;-75
2023/12/31 09:20:25;;;;;;;7.07;6.68;;;;;;;6.59;100.00;101076.81;5024684;28;20038;-75
2023/12/31 09:22:53;;;;;;;6.15;5.82;;;;;;;6.47;100.00;101052.19;5017924;28;20053;-75
2023/12/31 09:25:20;;;;;;;0.73;0.73;;;;;;;6.57;100.00;101070.69;5009505;28;20049;-77
2023/12/31 09:27:46;;;;;;;8.15;7.72;;;;;;;6.64;100.00;101054.34;5025311;28;20041;-75
2023/12/31 09:30:12;;;;;;;1.98;1.90;;;;;;;7.29;100.00;101161.28;5025663;28;20029;-76
2023/12/31 09:32:37;;;;;;;1.52;1.23;;;;;;;6.77;100.00;101064.28;5002383;28;20050;-75
2023/12/31 09:35:04;;;;;;;66.43;27.05;;;;;;;7.04;100.00;101095.38;5023325;28;20144;-75
2023/12/31 09:37:30;;;;;;;4.65;4.40;;;;;;;7.06;100.00;101083.28;5017238;28;20130;-76
2023/12/31 09:39:56;;;;;;;4.05;3.75;;;;;;;7.47;100.00;101126.88;5016921;28;20053;-74
2023/12/31 09:42:49;;;;;;;5.10;4.80;;;;;;;7.73;100.00;101137.97;5019123;28;20045;-76
2023/12/31 09:45:20;;;;;;;1.92;1.83;;;;;;;7.11;100.00;101025.97;5022881;28;20125;-78
2023/12/31 09:47:48;;;;;;;2.60;1.55;;;;;;;7.96;100.00;101135.84;5019722;28;20034;-77
2023/12/31 09:50:18;;;;;;;1.25;1.17;;;;;;;7.79;100.00;101106.75;5021406;28;20041;-77
2023/12/31 09:52:47;;;;;;;4.68;4.40;;;;;;;7.52;100.00;101018.22;5000514;28;20076;-77
2023/12/31 09:55:18;;;;;;;3.65;3.33;;;;;;;8.21;100.00;101111.16;5020846;28;20049;-76
2023/12/31 09:57:46;;;;;;;1.85;1.75;;;;;;;7.93;100.00;101062.63;5005651;28;20073;-76
2023/12/31 10:00:12;;;;;;;1.77;1.58;;;;;;;8.40;100.00;101099.34;5021133;28;20411;-76
2023/12/31 10:02:38;;;;;;;1.30;1.25;;;;;;;8.53;100.00;101085.69;5026138;28;20845;-76
2023/12/31 10:05:05;;;;;;;6.90;6.60;;;;;;;8.73;100.00;101095.63;5026439;28;20053;-76
2023/12/31 10:07:31;;;;;;;6.20;5.88;;;;;;;8.25;100.00;100977.03;5022726;28;20462;-77
2023/12/31 10:10:00;;;;;;;14.23;10.30;;;;;;;9.08;100.00;101078.84;5023897;28;20049;-78
2023/12/31 10:12:27;;;;;;;18.83;9.77;;;;;;;8.85;100.00;101015.63;5018688;28;20035;-76
2023/12/31 10:14:53;;;;;;;3.35;3.15;;;;;;;8.77;100.00;101066.06;5026591;28;20068;-77
2023/12/31 10:17:19;;;;;;;12.05;11.25;;;;;;;8.83;100.00;101019.06;5025213;28;20050;-76
2023/12/31 10:19:47;;;;;;;2.97;2.72;;;;;;;9.52;100.00;101089.09;5022824;28;20227;-77
2023/12/31 10:22:16;;;;;;;8.65;6.85;;;;;;;9.26;100.00;101057.28;5026012;28;20041;-77
2023/12/31 10:24:42;;;;;;;7.80;7.05;;;;;;;9.31;100.00;101075.69;5003831;28;20073;-78
2023/12/31 10:27:11;;;;;;;3.17;2.53;;;;;;;9.46;100.00;101062.84;5019319;28;20503;-77
2023/12/31 10:29:37;;;;;;;1.73;1.63;;;;;;;9.48;100.00;101070.69;5005614;28;20064;-76
2023/12/31 10:32:06;;;;;;;3.42;3.17;;;;;;;9.33;100.00;101039.06;5022884;28;20045;-75
2023/12/31 10:34:32;;;;;;;9.35;8.52;;;;;;;9.75;100.00;101046.66;5021311;28;20057;-77
2023/12/31 10:37:03;;;;;;;12.05;10.95;;;;;;;9.39;100.00;100964.06;5023795;28;20478;-75
2023/12/31 10:39:32;;;;;;;0.40;0.40;;;;;;;9.67;100.00;100994.16;5019350;28;20120;-76
2023/12/31 10:41:59;;;;;;;4.43;4.13;;;;;;;10.14;100.00;101012.19;5021620;28;20089;-75
2023/12/31 10:44:25;;;;;;;6.05;5.68;;;;;;;10.38;100.00;101034.34;5021639;28;20049;-77
2023/12/31 10:46:58;;;;;;;4.32;4.00;;;;;;;10.45;100.00;101036.16;5021676;28;20583;-76
2023/12/31 10:49:27;;;;;;;3.97;3.63;;;;;;;10.90;100.00;100956.06;5022863;28;20059;-76
2023/12/31 10:51:53;;;;;;;4.18;3.97;;;;;;;11.09;100.00;100958.81;5020911;28;20798;-77
2023/12/31 10:54:28;;;;;;;13.60;12.23;;;;;;;11.29;100.00;100986.09;5012401;28;20037;-76
2023/12/31 10:56:55;;;;;;;3.03;2.83;;;;;;;11.19;100.00;100951.03;5022495;28;20032;-76
2023/12/31 10:59:22;;;;;;;1.52;1.42;;;;;;;12.06;100.00;101010.19;5022259;28;20513;-78
2023/12/31 11:01:48;;;;;;;4.05;3.85;;;;;;;11.94;100.00;100907.53;5020397;28;20053;-76
2023/12/31 11:04:15;;;;;;;13.73;10.68;;;;;;;12.43;100.00;101000.63;5024240;28;20128;-78
2023/12/31 11:06:42;;;;;;;0.40;0.40;;;;;;;12.06;100.00;100972.44;5024540;28;20049;-77
2023/12/31 11:09:10;;;;;;;6.30;5.82;;;;;;;12.32;100.00;100980.44;5017255;28;20600;-79
2023/12/31 11:11:36;;;;;;;13.18;11.60;;;;;;;12.22;100.00;100940.94;5020541;28;20068;-76
2023/12/31 11:14:04;;;;;;;1.50;1.40;;;;;;;12.13;100.00;100913.75;5020082;28;20107;-77
2023/12/31 11:16:40;;;;;;;23.40;12.98;;;;;;;12.07;100.00;100976.84;5021552;28;20046;-76